Time;durP1;ratioP1;P1;durP2;ratioP2;P2;SDS_P1;SDS_P2;PMS_P1;PMS_P2;Temp;Humidity;BMP_temperature;BMP_pressure;BME280_temperature;BME280_humidity;BME280_pressure;Samples;Min_cycle;Max_cycle;Signal;HPM_P1;HPM_P2
2022/03/11 00:00:30;;;;;;;;;;;;;;;4.38;100.00;101786.16;5022289;28;19924;-71
2022/03/11 00:02:55;;;;;;;;;;;;;;;4.26;100.00;101781.78;5023695;28;19932;-71
2022/03/11 00:05:20;;;;;;;;;;;;;;;4.19;100.00;101787.91;5041023;28;20001;-70
2022/03/11 00:07:45;;;;;;;;;;;;;;;4.17;100.00;101783.56;5035241;28;19917;-70
2022/03/11 00:10:11;;;;;;;;;;;;;;;4.20;100.00;101780.91;5018521;28;20497;-70
2022/03/11 00:12:37;;;;;;;;;;;;;;;4.04;100.00;101781.81;5021063;28;20003;-70
2022/03/11 00:15:03;;;;;;;;;;;;;;;4.06;100.00;101782.69;5026261;28;20008;-70
2022/03/11 00:17:28;;;;;;;;;;;;;;;4.04;100.00;101779.19;5022343;28;20064;-70
2022/03/11 00:19:53;;;;;;;;;;;;;;;4.03;100.00;101778.31;5039200;28;19924;-70
2022/03/11 00:22:19;;;;;;;;;;;;;;;3.89;100.00;101779.22;5029590;28;20397;-70
2022/03/11 00:24:44;;;;;;;;;;;;;;;3.81;100.00;101780.97;5020617;28;19928;-71
2022/03/11 00:27:09;;;;;;;;;;;;;;;3.68;100.00;101785.34;5021163;28;20377;-70
2022/03/11 00:29:34;;;;;;;;;;;;;;;3.63;100.00;101781.84;5023799;28;19949;-70
2022/03/11 00:32:00;;;;;;;;;;;;;;;3.60;100.00;101770.44;5024814;28;20008;-70
2022/03/11 00:34:25;;;;;;;;;;;;;;;3.52;100.00;101772.19;5036479;28;19928;-70
2022/03/11 00:36:50;;;;;;;;;;;;;;;3.47;100.00;101766.94;5021817;28;19917;-70
2022/03/11 00:39:16;;;;;;;;;;;;;;;3.42;100.00;101766.06;5021754;28;19917;-70
2022/03/11 00:41:41;;;;;;;;;;;;;;;3.38;100.00;101763.41;5023060;28;20421;-70
2022/03/11 00:44:07;;;;;;;;;;;;;;;3.41;100.00;101763.41;5020634;28;20333;-70
2022/03/11 00:46:32;;;;;;;;;;;;;;;3.35;100.00;101769.56;5023018;28;20382;-70
2022/03/11 00:48:57;;;;;;;;;;;;;;;3.29;100.00;101768.66;5025524;28;19921;-70
2022/03/11 00:51:22;;;;;;;;;;;;;;;3.26;100.00;101768.66;5024491;28;19917;-70
2022/03/11 00:53:48;;;;;;;;;;;;;;;3.24;100.00;101767.78;5025442;28;20417;-71
2022/03/11 00:56:13;;;;;;;;;;;;;;;3.23;100.00;101766.03;5044471;28;20064;-70
2022/03/11 00:58:38;;;;;;;;;;;;;;;3.20;100.00;101766.03;5024008;28;19917;-71
2022/03/11 01:01:03;;;;;;;;;;;;;;;3.14;100.00;101757.28;5027808;28;19922;-71
2022/03/11 01:03:29;;;;;;;;;;;;;;;3.22;100.00;101753.78;5025278;28;19956;-70
2022/03/11 01:05:54;;;;;;;;;;;;;;;3.21;100.00;101745.03;5025293;28;19921;-70
2022/03/11 01:08:19;;;;;;;;;;;;;;;3.14;100.00;101743.25;5025007;28;19917;-70
2022/03/11 01:10:44;;;;;;;;;;;;;;;3.20;100.00;101745.03;5021291;28;19928;-70
2022/03/11 01:13:10;;;;;;;;;;;;;;;3.16;100.00;101733.66;5043194;28;20020;-71
2022/03/11 01:15:35;;;;;;;;;;;;;;;3.10;100.00;101731.03;5027701;28;20382;-71
2022/03/11 01:18:00;;;;;;;;;;;;;;;3.05;100.00;101723.16;5040353;28;19965;-70
2022/03/11 01:20:25;;;;;;;;;;;;;;;3.04;100.00;101721.38;5025291;28;19917;-71
2022/03/11 01:22:51;;;;;;;;;;;;;;;3.06;100.00;101722.25;5026657;28;19918;-70
2022/03/11 01:25:16;;;;;;;;;;;;;;;3.08;100.00;101715.28;5026620;28;19924;-70
2022/03/11 01:27:41;;;;;;;;;;;;;;;3.09;100.00;101706.53;5027091;28;19921;-70
2022/03/11 01:30:07;;;;;;;;;;;;;;;3.08;100.00;101704.78;5024557;28;19963;-70
2022/03/11 01:32:36;;;;;;;;;;;;;;;3.14;100.00;101709.16;5034825;28;20015;-71
2022/03/11 01:35:01;;;;;;;;;;;;;;;3.10;100.00;101702.16;5026270;28;19968;-71
2022/03/11 01:37:29;;;;;;;;;;;;;;;3.08;100.00;101696.91;5015829;28;19944;-70
2022/03/11 01:39:54;;;;;;;;;;;;;;;3.21;100.00;101696.91;5016967;28;19964;-70
2022/03/11 01:42:19;;;;;;;;;;;;;;;3.08;100.00;101694.28;5040561;28;19917;-70
2022/03/11 01:44:45;;;;;;;;;;;;;;;3.12;100.00;101687.25;5026769;28;20113;-70
2022/03/11 01:47:10;;;;;;;;;;;;;;;3.09;100.00;101680.28;5025199;28;20439;-70
2022/03/11 01:49:35;;;;;;;;;;;;;;;3.06;100.00;101682.00;5022900;28;19917;-70
2022/03/11 01:52:00;;;;;;;;;;;;;;;3.08;100.00;101675.91;5029014;28;20386;-70
2022/03/11 01:54:26;;;;;;;;;;;;;;;3.04;100.00;101676.75;5020068;28;19949;-70
2022/03/11 01:56:51;;;;;;;;;;;;;;;3.01;100.00;101670.63;5021841;28;19918;-70
2022/03/11 01:59:16;;;;;;;;;;;;;;;2.96;100.00;101673.25;5025646;28;19917;-70
2022/03/11 02:01:42;;;;;;;;;;;;;;;2.97;100.00;101664.53;5027183;28;19975;-70
2022/03/11 02:04:07;;;;;;;;;;;;;;;2.95;100.00;101657.50;5024748;28;19925;-70
2022/03/11 02:06:32;;;;;;;;;;;;;;;2.90;100.00;101659.25;5020366;28;20390;-70
2022/03/11 02:08:59;;;;;;;;;;;;;;;2.96;100.00;101662.75;5026820;28;20343;-70
2022/03/11 02:11:25;;;;;;;;;;;;;;;2.83;100.00;101666.25;5026853;28;19964;-70
2022/03/11 02:14:05;;;;;;;;;;;;;;;2.84;100.00;101654.88;5023215;28;19924;-70
2022/03/11 02:16:31;;;;;;;;;;;;;;;2.82;100.00;101653.16;5022814;28;19918;-70
2022/03/11 02:18:57;;;;;;;;;;;;;;;2.74;100.00;101650.47;5023568;28;19923;-70
2022/03/11 02:21:47;;;;;;;;;;;;;;;2.67;100.00;101648.75;5024179;28;19918;-70
2022/03/11 02:24:14;;;;;;;;;;;;;;;2.68;100.00;101652.22;5041247;28;20004;-70
2022/03/11 02:26:39;;;;;;;;;;;;;;;2.70;100.00;101648.75;5037224;28;19926;-70
2022/03/11 02:29:05;;;;;;;;;;;;;;;2.62;100.00;101645.22;5023704;28;20267;-70
2022/03/11 02:31:31;;;;;;;;;;;;;;;2.56;100.00;101637.34;5031851;28;19917;-70
2022/03/11 02:33:57;;;;;;;;;;;;;;;2.50;100.00;101637.34;5041271;28;19925;-70
2022/03/11 02:36:23;;;;;;;;;;;;;;;2.48;100.00;101625.97;5023557;28;19925;-70
2022/03/11 02:38:48;;;;;;;;;;;;;;;2.44;100.00;101637.28;5023617;28;19917;-70
2022/03/11 02:41:13;;;;;;;;;;;;;;;2.51;100.00;101625.97;5023915;28;19972;-70
2022/03/11 02:43:41;;;;;;;;;;;;;;;2.52;100.00;101627.72;5022548;28;19918;-72
2022/03/11 02:46:07;;;;;;;;;;;;;;;2.49;100.00;101624.22;5025098;28;20281;-70
2022/03/11 02:48:32;;;;;;;;;;;;;;;2.53;100.00;101624.25;5026609;28;19932;-70
2022/03/11 02:50:58;;;;;;;;;;;;;;;2.53;100.00;101619.00;5032072;28;19939;-70
2022/03/11 02:53:24;;;;;;;;;;;;;;;2.58;100.00;101616.38;5026076;28;19924;-70
2022/03/11 02:55:49;;;;;;;;;;;;;;;2.57;100.00;101619.88;5032977;28;19974;-71
2022/03/11 02:58:14;;;;;;;;;;;;;;;2.51;100.00;101615.47;5035069;28;19973;-70
2022/03/11 03:00:39;;;;;;;;;;;;;;;2.51;100.00;101614.59;5031315;28;19955;-71
2022/03/11 03:03:05;;;;;;;;;;;;;;;2.57;100.00;101610.25;5024035;28;20405;-70
2022/03/11 03:05:30;;;;;;;;;;;;;;;2.56;100.00;101613.75;5022263;28;19917;-70
2022/03/11 03:07:55;;;;;;;;;;;;;;;2.49;100.00;101617.22;5021713;28;19932;-70
2022/03/11 03:10:21;;;;;;;;;;;;;;;2.47;100.00;101613.75;5020831;28;20276;-70
2022/03/11 03:12:46;;;;;;;;;;;;;;;2.56;100.00;101605.88;5024492;28;19929;-71
2022/03/11 03:15:11;;;;;;;;;;;;;;;2.50;100.00;101605.88;5026703;28;20342;-68
2022/03/11 03:17:37;;;;;;;;;;;;;;;2.46;100.00;101605.88;5021604;28;19996;-70
2022/03/11 03:20:03;;;;;;;;;;;;;;;2.36;100.00;101599.72;5023491;28;20440;-71
2022/03/11 03:22:28;;;;;;;;;;;;;;;2.38;100.00;101600.59;5022934;28;19925;-69
2022/03/11 03:24:54;;;;;;;;;;;;;;;2.40;100.00;101604.09;5035741;28;19917;-69
2022/03/11 03:27:19;;;;;;;;;;;;;;;2.33;100.00;101599.69;5021410;28;19917;-69
2022/03/11 03:29:44;;;;;;;;;;;;;;;2.34;100.00;101601.47;5025766;28;19924;-69
2022/03/11 03:32:09;;;;;;;;;;;;;;;2.31;100.00;101596.22;5021988;28;19917;-69
2022/03/11 03:34:36;;;;;;;;;;;;;;;2.27;100.00;101596.22;5027140;28;20348;-69
2022/03/11 03:37:03;;;;;;;;;;;;;;;2.32;100.00;101592.72;5027666;28;19925;-69
2022/03/11 03:39:29;;;;;;;;;;;;;;;2.42;100.00;101599.75;5022587;28;19917;-69
2022/03/11 03:41:55;;;;;;;;;;;;;;;2.28;100.00;101590.97;5027344;28;19918;-70
2022/03/11 03:44:21;;;;;;;;;;;;;;;2.37;100.00;101590.97;5029441;28;20298;-69
2022/03/11 03:46:46;;;;;;;;;;;;;;;2.36;100.00;101594.50;5024846;28;19925;-69
2022/03/11 03:49:11;;;;;;;;;;;;;;;2.37;100.00;101588.38;5023357;28;19925;-69
2022/03/11 03:51:38;;;;;;;;;;;;;;;2.37;100.00;101583.13;5041348;28;20137;-69
2022/03/11 03:54:03;;;;;;;;;;;;;;;2.45;100.00;101585.75;5032847;28;19924;-69
2022/03/11 03:56:29;;;;;;;;;;;;;;;2.42;100.00;101577.88;5030048;28;20259;-69
2022/03/11 03:58:54;;;;;;;;;;;;;;;2.44;100.00;101570.91;5026789;28;19940;-69
2022/03/11 04:01:20;;;;;;;;;;;;;;;2.37;100.00;101575.25;5020380;28;19917;-69
2022/03/11 04:03:45;;;;;;;;;;;;;;;2.36;100.00;101564.78;5037570;28;20016;-69
2022/03/11 04:06:10;;;;;;;;;;;;;;;2.41;100.00;101577.00;5022372;28;19979;-69
2022/03/11 04:08:35;;;;;;;;;;;;;;;2.46;100.00;101570.03;5027864;28;19918;-69
2022/03/11 04:11:01;;;;;;;;;;;;;;;2.44;100.00;101563.03;5019897;28;20067;-69
2022/03/11 04:13:26;;;;;;;;;;;;;;;2.41;100.00;101558.66;5023077;28;19918;-69
2022/03/11 04:15:51;;;;;;;;;;;;;;;2.41;100.00;101557.78;5023076;28;20047;-69
2022/03/11 04:18:17;;;;;;;;;;;;;;;2.41;100.00;101561.28;5018861;28;19940;-69
2022/03/11 04:20:42;;;;;;;;;;;;;;;2.44;100.00;101557.81;5021118;28;19940;-69
2022/03/11 04:23:07;;;;;;;;;;;;;;;2.42;100.00;101549.06;5026829;28;20019;-69
2022/03/11 04:25:32;;;;;;;;;;;;;;;2.35;100.00;101555.16;5013362;28;19924;-69
2022/03/11 04:27:58;;;;;;;;;;;;;;;2.48;100.00;101546.44;5014341;28;19928;-69
2022/03/11 04:30:23;;;;;;;;;;;;;;;2.41;100.00;101542.91;5014253;28;20458;-69
2022/03/11 04:32:48;;;;;;;;;;;;;;;2.43;100.00;101541.19;5012871;28;19921;-69
2022/03/11 04:35:13;;;;;;;;;;;;;;;2.45;100.00;101542.06;5013302;28;19928;-69
2022/03/11 04:37:39;;;;;;;;;;;;;;;2.43;100.00;101545.53;5014438;28;20371;-69
2022/03/11 04:40:04;;;;;;;;;;;;;;;2.35;100.00;101539.44;5013527;28;19924;-69
2022/03/11 04:42:30;;;;;;;;;;;;;;;2.37;100.00;101538.56;5014480;28;19917;-69
2022/03/11 04:44:55;;;;;;;;;;;;;;;2.31;100.00;101542.91;5018578;28;19967;-69
2022/03/11 04:47:20;;;;;;;;;;;;;;;2.32;100.00;101537.66;5032308;28;19917;-69
2022/03/11 04:49:45;;;;;;;;;;;;;;;2.41;100.00;101539.44;5034005;28;20063;-69
2022/03/11 04:52:11;;;;;;;;;;;;;;;2.34;100.00;101535.94;5033843;28;19917;-69
2022/03/11 04:59:43;;;;;;;;;;;;;;;2.31;100.00;101533.31;5031995;28;19929;-70
2022/03/11 05:02:08;;;;;;;;;;;;;;;2.28;100.00;101530.69;5031965;28;19925;-70
2022/03/11 05:04:33;;;;;;;;;;;;;;;2.29;100.00;101528.94;5033352;28;20028;-71
2022/03/11 05:06:59;;;;;;;;;;;;;;;2.22;100.00;101524.56;5032616;28;20592;-71
2022/03/11 05:09:24;;;;;;;;;;;;;;;2.15;100.00;101528.03;5025593;28;20340;-70
2022/03/11 05:11:49;;;;;;;;;;;;;;;2.21;100.00;101523.69;5033197;28;19925;-70
2022/03/11 05:14:15;;;;;;;;;;;;;;;2.22;100.00;101521.94;5033230;28;20004;-70
2022/03/11 05:16:40;;;;;;;;;;;;;;;2.23;100.00;101529.81;5031403;28;19960;-70
2022/03/11 05:19:05;;;;;;;;;;;;;;;2.17;100.00;101524.56;5033139;28;20020;-71
2022/03/11 05:21:30;;;;;;;;;;;;;;;2.11;100.00;101524.50;5031919;28;19953;-70
2022/03/11 05:23:55;;;;;;;;;;;;;;;2.22;100.00;101524.56;5031860;28;20391;-70
2022/03/11 05:26:28;;;;;;;;;;;;;;;2.15;100.00;101523.66;5031891;28;20404;-71
2022/03/11 05:29:00;;;;;;;;;;;;;;;2.14;100.00;101524.56;5034693;28;20316;-70
2022/03/11 05:31:26;;;;;;;;;;;;;;;2.18;100.00;101521.06;5032854;28;19970;-70
2022/03/11 05:33:52;;;;;;;;;;;;;;;2.17;100.00;101519.31;5025714;28;20282;-70
2022/03/11 05:36:17;;;;;;;;;;;;;;;2.22;100.00;101514.09;5025300;28;20012;-70
2022/03/11 05:38:43;;;;;;;;;;;;;;;2.27;100.00;101521.06;5036252;28;19918;-70
2022/03/11 05:41:08;;;;;;;;;;;;;;;2.17;100.00;101519.31;5025479;28;20006;-70
2022/03/11 05:43:34;;;;;;;;;;;;;;;2.07;100.00;101527.13;5026473;28;19921;-71
2022/03/11 05:45:59;;;;;;;;;;;;;;;2.05;100.00;101516.66;5022424;28;19965;-70
2022/03/11 05:48:24;;;;;;;;;;;;;;;2.06;100.00;101517.53;5022191;28;19918;-71
2022/03/11 05:50:49;;;;;;;;;;;;;;;2.17;100.00;101514.06;5036946;28;19918;-71
2022/03/11 05:53:15;;;;;;;;;;;;;;;2.11;100.00;101516.66;5023734;28;20016;-71
2022/03/11 05:55:40;;;;;;;;;;;;;;;2.20;100.00;101519.31;5021885;28;19917;-71
2022/03/11 05:58:05;;;;;;;;;;;;;;;2.20;100.00;101521.06;5022615;28;19929;-72
2022/03/11 06:00:30;;;;;;;;;;;;;;;2.13;100.00;101516.69;5024792;28;19917;-72
2022/03/11 06:02:56;;;;;;;;;;;;;;;2.11;100.00;101515.81;5026401;28;20072;-71
2022/03/11 06:05:21;;;;;;;;;;;;;;;2.16;100.00;101508.84;5023924;28;19921;-73
2022/03/11 06:07:46;;;;;;;;;;;;;;;2.03;100.00;101514.91;5028522;28;19921;-72
2022/03/11 06:10:11;;;;;;;;;;;;;;;2.17;100.00;101514.06;5008719;28;19927;-72
2022/03/11 06:12:37;;;;;;;;;;;;;;;2.15;100.00;101509.69;5028216;28;20350;-72
2022/03/11 06:15:09;;;;;;;;;;;;;;;2.13;100.00;101519.31;5024029;28;19917;-74
2022/03/11 06:17:34;;;;;;;;;;;;;;;2.04;100.00;101507.06;5035044;28;19910;-70
2022/03/11 06:19:59;;;;;;;;;;;;;;;2.10;100.00;101499.19;5027003;28;20356;-74
2022/03/11 06:22:24;;;;;;;;;;;;;;;2.03;100.00;101501.81;5019311;28;19967;-74
2022/03/11 06:24:50;;;;;;;;;;;;;;;2.02;100.00;101493.06;5023448;28;19917;-74
2022/03/11 06:27:15;;;;;;;;;;;;;;;2.10;100.00;101507.06;5026357;28;19917;-75
2022/03/11 06:29:40;;;;;;;;;;;;;;;2.16;100.00;101496.59;5024394;28;20330;-74
2022/03/11 06:32:05;;;;;;;;;;;;;;;2.18;100.00;101500.09;5024022;28;20401;-74
2022/03/11 06:34:31;;;;;;;;;;;;;;;2.24;100.00;101494.00;5026650;28;19917;-75
2022/03/11 06:36:56;;;;;;;;;;;;;;;2.22;100.00;101501.81;5024355;28;20077;-74
2022/03/11 06:39:21;;;;;;;;;;;;;;;2.36;100.00;101499.25;5025204;28;19925;-71
2022/03/11 06:41:47;;;;;;;;;;;;;;;2.39;100.00;101494.88;5024006;28;20302;-70
2022/03/11 06:44:12;;;;;;;;;;;;;;;2.47;100.00;101489.63;5020424;28;19925;-72
2022/03/11 06:46:37;;;;;;;;;;;;;;;2.48;100.00;101496.63;5024826;28;19921;-71
2022/03/11 06:49:03;;;;;;;;;;;;;;;2.60;100.00;101494.88;5016235;28;19924;-71
2022/03/11 06:51:28;;;;;;;;;;;;;;;2.60;100.00;101491.41;5022969;28;19925;-70
2022/03/11 06:53:53;;;;;;;;;;;;;;;2.69;100.00;101494.91;5028559;28;19996;-70
2022/03/11 06:56:19;;;;;;;;;;;;;;;2.76;100.00;101499.25;5018991;28;19925;-70
2022/03/11 06:58:44;;;;;;;;;;;;;;;2.95;100.00;101487.84;5025424;28;19967;-70
2022/03/11 07:01:09;;;;;;;;;;;;;;;2.93;100.00;101484.34;5024211;28;20020;-71
2022/03/11 07:03:35;;;;;;;;;;;;;;;3.17;100.00;101487.81;5022314;28;19945;-70
2022/03/11 07:06:00;;;;;;;;;;;;;;;3.24;100.00;101486.91;5025200;28;19917;-70
2022/03/11 07:08:25;;;;;;;;;;;;;;;3.37;100.00;101480.75;5021340;28;19917;-70
2022/03/11 07:10:51;;;;;;;;;;;;;;;3.47;100.00;101471.97;5021656;28;19924;-70
2022/03/11 07:13:16;;;;;;;;;;;;;;;3.59;100.00;101477.19;5022951;28;20028;-70
2022/03/11 07:15:41;;;;;;;;;;;;;;;3.68;100.00;101472.75;5022327;28;20008;-70
2022/03/11 07:18:06;;;;;;;;;;;;;;;3.77;100.00;101466.56;5024161;28;19949;-70
2022/03/11 07:20:31;;;;;;;;;;;;;;;3.83;100.00;101479.69;5026338;28;19967;-70
2022/03/11 07:22:57;;;;;;;;;;;;;;;4.02;100.00;101482.19;5023192;28;19921;-70
2022/03/11 07:25:22;;;;;;;;;;;;;;;4.06;100.00;101477.78;5021942;28;19923;-70
2022/03/11 07:27:48;;;;;;;;;;;;;;;4.24;100.00;101482.91;5021326;28;19957;-73
2022/03/11 07:30:14;;;;;;;;;;;;;;;4.29;100.00;101484.66;5019820;28;20392;-72
2022/03/11 07:32:40;;;;;;;;;;;;;;;4.40;100.00;101484.56;5019736;28;19921;-71
2022/03/11 07:35:05;;;;;;;;;;;;;;;4.53;100.00;101470.44;5022252;28;20382;-71
2022/03/11 07:37:30;;;;;;;;;;;;;;;4.55;100.00;101471.31;5018683;28;20336;-72
2022/03/11 07:39:56;;;;;;;;;;;;;;;4.64;100.00;101473.84;5025357;28;19971;-73
2022/03/11 07:42:21;;;;;;;;;;;;;;;4.73;100.00;101472.00;5023479;28;19917;-72
2022/03/11 07:44:46;;;;;;;;;;;;;;;4.75;100.00;101461.47;5019413;28;19929;-71
2022/03/11 07:47:11;;;;;;;;;;;;;;;4.94;100.00;101463.06;5020691;28;19922;-71
2022/03/11 07:49:37;;;;;;;;;;;;;;;4.90;100.00;101456.06;5020331;28;19963;-71
2022/03/11 07:52:02;;;;;;;;;;;;;;;5.08;100.00;101455.88;5022803;28;19921;-71
2022/03/11 07:54:28;;;;;;;;;;;;;;;5.10;100.00;101455.88;5021997;28;19921;-71
2022/03/11 07:56:53;;;;;;;;;;;;;;;5.21;100.00;101452.22;5018745;28;19917;-71
2022/03/11 07:59:18;;;;;;;;;;;;;;;5.38;100.00;101455.53;5020733;28;19921;-72
2022/03/11 08:01:43;;;;;;;;;;;;;;;5.42;100.00;101462.50;5017550;28;19923;-72
2022/03/11 08:04:13;;;;;;;;;;;;;;;5.58;100.00;101450.88;5019977;28;19917;-71
2022/03/11 08:06:38;;;;;;;;;;;;;;;5.71;100.00;101460.38;5022324;28;19968;-71
2022/03/11 08:09:03;;;;;;;;;;;;;;;5.86;100.00;101447.03;5004603;28;19972;-71
2022/03/11 08:11:29;;;;;;;;;;;;;;;5.82;100.00;101450.59;5018820;28;19964;-71
2022/03/11 08:13:54;;;;;;;;;;;;;;;5.92;100.00;101443.44;5017109;28;19925;-71
2022/03/11 08:16:20;;;;;;;;;;;;;;;6.00;100.00;101431.03;5014131;28;19917;-74
2022/03/11 08:18:45;;;;;;;;;;;;;;;6.04;100.00;101430.94;5007990;28;19926;-71
2022/03/11 08:21:12;;;;;;;;;;;;;;;6.14;100.00;101421.13;5020380;28;19929;-71
2022/03/11 08:23:39;;;;;;;;;;;;;;;6.27;100.00;101420.06;5020291;28;19953;-71
2022/03/11 08:26:04;;;;;;;;;;;;;;;6.30;100.00;101432.31;5021259;28;19917;-70
2022/03/11 08:28:29;;;;;;;;;;;;;;;6.41;100.00;101419.81;5017506;28;20024;-71
2022/03/11 08:30:55;;;;;;;;;;;;;;;6.55;100.00;101431.91;5023991;28;19924;-71
2022/03/11 08:33:22;;;;;;;;;;;;;;;6.71;100.00;101429.88;5016967;28;20016;-71
2022/03/11 08:35:48;;;;;;;;;;;;;;;6.89;100.00;101426.88;5017619;28;19926;-71
2022/03/11 08:38:13;;;;;;;;;;;;;;;6.86;100.00;101429.56;5019583;28;19971;-71
2022/03/11 08:40:38;;;;;;;;;;;;;;;6.92;100.00;101422.41;5024146;28;19924;-72
2022/03/11 08:43:03;;;;;;;;;;;;;;;6.99;100.00;101429.34;5016355;28;19968;-72
2022/03/11 08:45:29;;;;;;;;;;;;;;;7.05;100.00;101418.66;5017044;28;19921;-72
2022/03/11 08:47:54;;;;;;;;;;;;;;;7.08;100.00;101425.63;5013959;28;19917;-72
2022/03/11 08:50:20;;;;;;;;;;;;;;;7.26;100.00;101417.38;5012992;28;20369;-73
2022/03/11 08:52:46;;;;;;;;;;;;;;;7.40;100.00;101413.56;5014718;28;20008;-77
2022/03/11 08:55:12;;;;;;;;;;;;;;;7.37;100.00;101421.53;5025842;28;19972;-71
2022/03/11 08:57:37;;;;;;;;;;;;;;;7.49;100.00;101409.81;5032920;28;20021;-71
2022/03/11 09:00:14;;;;;;;;;;;;;;;7.57;100.00;101410.53;5032400;28;19924;-73
2022/03/11 09:02:39;;;;;;;;;;;;;;;7.69;100.00;101405.84;5033817;28;20015;-71
2022/03/11 09:05:05;;;;;;;;;;;;;;;7.83;100.00;101398.47;5036861;28;19968;-71
2022/03/11 09:07:32;;;;;;;;;;;;;;;7.82;100.00;101401.16;5023159;28;19947;-73
2022/03/11 09:09:57;;;;;;;;;;;;;;;7.93;100.00;101390.31;5021659;28;19921;-70
2022/03/11 09:12:22;;;;;;;;;;;;;;;8.14;100.00;101388.06;5037120;28;20396;-70
2022/03/11 09:14:48;;;;;;;;;;;;;;;8.12;100.00;101381.94;5030421;28;20393;-72
2022/03/11 09:17:13;;;;;;;;;;;;;;;8.22;100.00;101386.13;5015975;28;19918;-71
2022/03/11 09:19:38;;;;;;;;;;;;;;;8.36;100.00;101383.16;5030891;28;19921;-72
2022/03/11 09:22:03;;;;;;;;;;;;;;;8.37;100.00;101388.41;5035938;28;19924;-71
2022/03/11 09:24:28;;;;;;;;;;;;;;;8.45;100.00;101383.78;5029024;28;19928;-71
2022/03/11 09:26:54;;;;;;;;;;;;;;;8.54;100.00;101386.19;5027103;28;19923;-71
2022/03/11 09:29:19;;;;;;;;;;;;;;;8.61;100.00;101373.66;5018095;28;20347;-72
2022/03/11 09:31:44;;;;;;;;;;;;;;;8.74;100.00;101360.09;5030561;28;19921;-73
2022/03/11 09:34:09;;;;;;;;;;;;;;;8.75;100.00;101369.75;5014765;28;19945;-72
2022/03/11 09:36:35;;;;;;;;;;;;;;;8.84;100.00;101366.84;5030086;28;19952;-72
2022/03/11 09:39:00;;;;;;;;;;;;;;;9.01;100.00;101366.41;5022840;28;20012;-72
2022/03/11 09:41:27;;;;;;;;;;;;;;;9.06;100.00;101361.84;5022896;28;19917;-71
2022/03/11 09:43:54;;;;;;;;;;;;;;;9.15;100.00;101374.81;5015124;28;19921;-74
2022/03/11 09:46:19;;;;;;;;;;;;;;;9.37;100.00;101375.94;5026438;28;19944;-72
2022/03/11 09:48:45;;;;;;;;;;;;;;;9.49;100.00;101370.28;5014783;28;19917;-72
2022/03/11 09:51:10;;;;;;;;;;;;;;;9.60;100.00;101361.97;5018201;28;20019;-72
2022/03/11 09:53:36;;;;;;;;;;;;;;;9.64;100.00;101351.25;5025566;28;19921;-72
2022/03/11 09:56:01;;;;;;;;;;;;;;;9.64;100.00;101351.25;5015073;28;19917;-71
2022/03/11 09:58:26;;;;;;;;;;;;;;;9.76;100.00;101348.22;5021899;28;19925;-72
2022/03/11 10:00:52;;;;;;;;;;;;;;;9.91;100.00;101342.41;5034470;28;20408;-72
2022/03/11 10:03:17;;;;;;;;;;;;;;;9.95;100.00;101336.09;5020895;28;20051;-72
2022/03/11 10:05:46;;;;;;;;;;;;;;;9.91;100.00;101339.75;5027410;28;20275;-72
2022/03/11 10:08:11;;;;;;;;;;;;;;;9.92;100.00;101330.03;5014974;28;20417;-73
2022/03/11 10:10:37;;;;;;;;;;;;;;;10.28;100.00;101344.78;5014289;28;19984;-72
2022/03/11 10:13:02;;;;;;;;;;;;;;;10.36;100.00;101340.06;5015130;28;20012;-72
2022/03/11 10:15:28;;;;;;;;;;;;;;;10.47;100.00;101340.59;5014640;28;19965;-72
2022/03/11 10:17:54;;;;;;;;;;;;;;;10.49;100.00;101336.94;5015603;28;19922;-72
2022/03/11 10:20:20;;;;;;;;;;;;;;;10.64;100.00;101327.56;5014551;28;19930;-72
2022/03/11 10:22:45;;;;;;;;;;;;;;;10.85;100.00;101337.47;5013681;28;19927;-72
2022/03/11 10:25:10;;;;;;;;;;;;;;;10.88;100.00;101325.84;5015439;28;20008;-72
2022/03/11 10:27:55;;;;;;;;;;;;;;;10.80;100.00;101334.09;5015472;28;20362;-71
2022/03/11 10:30:20;;;;;;;;;;;;;;;10.90;100.00;101326.66;5023028;28;19968;-72
2022/03/11 10:32:49;;;;;;;;;;;;;;;11.09;100.00;101325.06;5019460;28;19992;-72
2022/03/11 10:35:18;;;;;;;;;;;;;;;11.14;100.00;101321.28;5026201;28;19922;-72
2022/03/11 10:37:54;;;;;;;;;;;;;;;11.32;100.00;101320.63;5014064;28;19921;-72
2022/03/11 10:40:20;;;;;;;;;;;;;;;11.40;100.00;101299.91;5031259;28;19921;-74
2022/03/11 10:42:45;;;;;;;;;;;;;;;11.47;100.00;101298.72;5021896;28;19992;-72
2022/03/11 10:45:11;;;;;;;;;;;;;;;11.76;100.00;101308.25;5016843;28;19971;-72
2022/03/11 10:47:37;;;;;;;;;;;;;;;11.90;100.00;101300.59;5013348;28;19969;-72
2022/03/11 10:50:04;;;;;;;;;;;;;;;12.13;100.00;101304.03;5016611;28;19925;-72
2022/03/11 10:52:50;;;;;;;;;;;;;;;12.28;100.00;101308.72;5027187;28;19957;-72
2022/03/11 10:55:17;;;;;;;;;;;;;;;12.52;100.00;101295.28;5032537;28;19917;-72
2022/03/11 10:57:43;;;;;;;;;;;;;;;12.73;100.00;101294.34;5029827;28;19947;-74
2022/03/11 11:00:28;;;;;;;;;;;;;;;12.95;100.00;101293.31;5022435;28;19921;-72
2022/03/11 11:02:54;;;;;;;;;;;;;;;13.89;100.00;101295.09;5012859;28;19953;-72
2022/03/11 11:05:20;;;;;;;;;;;;;;;15.43;100.00;101293.19;5027051;28;20293;-72
2022/03/11 11:07:46;;;;;;;;;;;;;;;16.22;100.00;101287.72;5028180;28;19921;-72
2022/03/11 11:10:12;;;;;;;;;;;;;;;17.67;100.00;101292.97;5012200;28;20012;-72
2022/03/11 11:12:39;;;;;;;;;;;;;;;18.17;100.00;101297.69;5012423;28;19924;-72
2022/03/11 11:15:04;;;;;;;;;;;;;;;18.18;100.00;101289.53;5013823;28;19917;-72
2022/03/11 11:17:30;;;;;;;;;;;;;;;19.23;100.00;101285.81;5021387;28;19925;-73
2022/03/11 11:20:01;;;;;;;;;;;;;;;18.84;100.00;101277.84;5034189;28;20414;-73
2022/03/11 11:22:26;;;;;;;;;;;;;;;20.50;100.00;101277.22;5029869;28;19926;-73
2022/03/11 11:24:54;;;;;;;;;;;;;;;19.92;100.00;101275.31;5013566;28;20401;-72
2022/03/11 11:27:20;;;;;;;;;;;;;;;18.41;100.00;101287.16;5012312;28;19924;-72
2022/03/11 11:29:47;;;;;;;;;;;;;;;20.46;100.00;101270.31;5014690;28;20285;-73
2022/03/11 11:32:12;;;;;;;;;;;;;;;20.38;100.00;101259.25;5014563;28;20251;-73
2022/03/11 11:34:37;;;;;;;;;;;;;;;21.92;100.00;101258.50;5012820;28;19944;-73
2022/03/11 11:37:04;;;;;;;;;;;;;;;21.80;100.00;101257.66;5013049;28;20323;-73
2022/03/11 11:39:39;;;;;;;;;;;;;;;22.30;100.00;101254.28;5025325;28;19917;-72
2022/03/11 11:42:09;;;;;;;;;;;;;;;22.22;100.00;101245.97;5027528;28;19960;-71
2022/03/11 11:44:35;;;;;;;;;;;;;;;23.07;100.00;101241.28;5027942;28;20496;-71
2022/03/11 11:47:08;;;;;;;;;;;;;;;23.98;100.00;101243.75;5013420;28;20384;-72
2022/03/11 11:49:41;;;;;;;;;;;;;;;24.01;100.00;101227.22;5024972;28;19944;-73
2022/03/11 11:52:08;;;;;;;;;;;;;;;24.13;100.00;101232.50;5023699;28;19918;-74
2022/03/11 11:54:35;;;;;;;;;;;;;;;24.03;100.00;101225.19;5025803;28;19917;-73
2022/03/11 11:57:02;;;;;;;;;;;;;;;23.52;100.00;101221.81;5020917;28;19940;-73
2022/03/11 11:59:38;;;;;;;;;;;;;;;23.76;100.00;101218.72;5017206;28;19952;-73
2022/03/11 12:02:24;;;;;;;;;;;;;;;24.99;100.00;101209.63;5022378;28;20289;-73
2022/03/11 12:04:49;;;;;;;;;;;;;;;25.54;100.00;101216.03;5025480;28;19922;-72
2022/03/11 12:07:16;;;;;;;;;;;;;;;26.10;100.00;101210.34;5023780;28;19921;-72
2022/03/11 12:09:42;;;;;;;;;;;;;;;25.81;100.00;101210.53;5012568;28;19928;-72
2022/03/11 12:12:32;;;;;;;;;;;;;;;24.17;100.00;101216.63;5025544;28;19925;-72
2022/03/11 12:14:57;;;;;;;;;;;;;;;24.89;100.00;101205.25;5032356;28;19924;-73
2022/03/11 12:17:36;;;;;;;;;;;;;;;25.87;100.00;101212.66;5027190;28;19917;-72
2022/03/11 12:20:20;;;;;;;;;;;;;;;25.38;100.00;101203.09;5026839;28;19983;-73
2022/03/11 12:23:04;;;;;;;;;;;;;;;23.82;100.00;101204.59;5033795;28;19917;-71
2022/03/11 12:25:34;;;;;;;;;;;;;;;24.29;100.00;101200.19;5019952;28;19925;-71
2022/03/11 12:27:59;;;;;;;;;;;;;;;24.64;100.00;101193.16;5013753;28;19918;-72
2022/03/11 12:30:32;;;;;;;;;;;;;;;25.26;100.00;101193.34;5013729;28;19917;-72
2022/03/11 12:32:59;;;;;;;;;;;;;;;22.76;100.00;101186.25;5012563;28;19922;-72
2022/03/11 12:35:25;;;;;;;;;;;;;;;23.24;100.00;101181.91;5012050;28;19917;-72